sensor_id;sensor_type;location;lat;lon;timestamp;temperature;humidity
32293;DHT22;43233;48.608;8.838;2023-02-18T00:00:11;10.00;84.10
32293;DHT22;43233;48.608;8.838;2023-02-18T00:02:37;10.10;84.50
32293;DHT22;43233;48.608;8.838;2023-02-18T00:05:04;10.00;84.30
32293;DHT22;43233;48.608;8.838;2023-02-18T00:07:36;10.00;85.20
32293;DHT22;43233;48.608;8.838;2023-02-18T00:10:03;10.00;84.70
32293;DHT22;43233;48.608;8.838;2023-02-18T00:12:30;10.00;84.70
32293;DHT22;43233;48.608;8.838;2023-02-18T00:14:55;10.00;84.60
32293;DHT22;43233;48.608;8.838;2023-02-18T00:17:21;10.00;84.10
32293;DHT22;43233;48.608;8.838;2023-02-18T00:19:46;10.10;84.20
32293;DHT22;43233;48.608;8.838;2023-02-18T00:22:12;10.00;84.00
32293;DHT22;43233;48.608;8.838;2023-02-18T00:24:38;10.10;83.80
32293;DHT22;43233;48.608;8.838;2023-02-18T00:27:03;10.10;83.40
32293;DHT22;43233;48.608;8.838;2023-02-18T00:29:29;10.10;83.00
32293;DHT22;43233;48.608;8.838;2023-02-18T00:31:54;10.10;83.20
32293;DHT22;43233;48.608;8.838;2023-02-18T00:37:42;10.10;83.40
32293;DHT22;43233;48.608;8.838;2023-02-18T00:40:08;10.10;83.30
32293;DHT22;43233;48.608;8.838;2023-02-18T00:42:33;10.10;83.10
32293;DHT22;43233;48.608;8.838;2023-02-18T00:44:59;10.10;83.00
32293;DHT22;43233;48.608;8.838;2023-02-18T00:47:24;10.10;82.70
32293;DHT22;43233;48.608;8.838;2023-02-18T00:49:50;10.20;82.60
32293;DHT22;43233;48.608;8.838;2023-02-18T00:52:16;10.20;82.10
32293;DHT22;43233;48.608;8.838;2023-02-18T00:54:41;10.20;81.80
32293;DHT22;43233;48.608;8.838;2023-02-18T00:57:07;10.20;82.70
32293;DHT22;43233;48.608;8.838;2023-02-18T00:59:32;10.20;81.70
32293;DHT22;43233;48.608;8.838;2023-02-18T01:01:58;10.20;81.70
32293;DHT22;43233;48.608;8.838;2023-02-18T01:04:24;10.10;81.70
32293;DHT22;43233;48.608;8.838;2023-02-18T01:06:49;10.10;81.30
32293;DHT22;43233;48.608;8.838;2023-02-18T01:09:15;10.10;81.30
32293;DHT22;43233;48.608;8.838;2023-02-18T01:11:41;10.20;80.90
32293;DHT22;43233;48.608;8.838;2023-02-18T01:14:06;10.10;81.20
32293;DHT22;43233;48.608;8.838;2023-02-18T01:16:32;10.20;80.80
32293;DHT22;43233;48.608;8.838;2023-02-18T01:18:57;10.10;81.10
32293;DHT22;43233;48.608;8.838;2023-02-18T01:21:23;10.10;81.00
32293;DHT22;43233;48.608;8.838;2023-02-18T01:23:48;10.10;80.80
32293;DHT22;43233;48.608;8.838;2023-02-18T01:26:14;10.10;80.90
32293;DHT22;43233;48.608;8.838;2023-02-18T01:28:40;10.10;80.40
32293;DHT22;43233;48.608;8.838;2023-02-18T01:31:08;10.20;80.20
32293;DHT22;43233;48.608;8.838;2023-02-18T01:33:34;10.10;80.20
32293;DHT22;43233;48.608;8.838;2023-02-18T01:36:00;10.10;80.00
32293;DHT22;43233;48.608;8.838;2023-02-18T01:38:26;10.10;80.00
32293;DHT22;43233;48.608;8.838;2023-02-18T01:40:52;10.00;79.70
32293;DHT22;43233;48.608;8.838;2023-02-18T01:43:18;10.00;80.40
32293;DHT22;43233;48.608;8.838;2023-02-18T01:46:15;9.90;79.70
32293;DHT22;43233;48.608;8.838;2023-02-18T01:53:55;9.90;80.50
32293;DHT22;43233;48.608;8.838;2023-02-18T01:56:54;9.90;80.60
32293;DHT22;43233;48.608;8.838;2023-02-18T01:59:39;9.80;80.60
32293;DHT22;43233;48.608;8.838;2023-02-18T02:02:09;9.80;81.10
32293;DHT22;43233;48.608;8.838;2023-02-18T02:04:35;9.80;81.60
32293;DHT22;43233;48.608;8.838;2023-02-18T02:07:01;9.80;81.60
32293;DHT22;43233;48.608;8.838;2023-02-18T02:09:28;9.80;81.50
32293;DHT22;43233;48.608;8.838;2023-02-18T02:34:33;10.00;80.70
32293;DHT22;43233;48.608;8.838;2023-02-18T02:44:56;10.10;80.00
32293;DHT22;43233;48.608;8.838;2023-02-18T02:47:40;10.20;79.30
32293;DHT22;43233;48.608;8.838;2023-02-18T02:53:10;10.30;79.20
32293;DHT22;43233;48.608;8.838;2023-02-18T02:55:35;10.20;79.10
32293;DHT22;43233;48.608;8.838;2023-02-18T02:58:01;10.20;79.60
32293;DHT22;43233;48.608;8.838;2023-02-18T03:08:44;9.90;80.80
32293;DHT22;43233;48.608;8.838;2023-02-18T03:11:15;9.90;81.30
32293;DHT22;43233;48.608;8.838;2023-02-18T03:14:05;9.90;81.30
32293;DHT22;43233;48.608;8.838;2023-02-18T03:19:18;10.00;80.70
32293;DHT22;43233;48.608;8.838;2023-02-18T03:21:51;10.00;80.30
32293;DHT22;43233;48.608;8.838;2023-02-18T03:24:30;10.10;80.00
32293;DHT22;43233;48.608;8.838;2023-02-18T03:29:55;10.10;79.70
32293;DHT22;43233;48.608;8.838;2023-02-18T03:32:23;10.00;79.50
32293;DHT22;43233;48.608;8.838;2023-02-18T03:34:54;10.00;79.60
32293;DHT22;43233;48.608;8.838;2023-02-18T03:37:21;10.00;79.50
32293;DHT22;43233;48.608;8.838;2023-02-18T03:39:51;10.00;79.20
32293;DHT22;43233;48.608;8.838;2023-02-18T03:42:25;9.90;79.50
32293;DHT22;43233;48.608;8.838;2023-02-18T03:44:50;9.90;79.50
32293;DHT22;43233;48.608;8.838;2023-02-18T03:47:16;9.90;79.20
32293;DHT22;43233;48.608;8.838;2023-02-18T03:49:42;9.90;79.20
32293;DHT22;43233;48.608;8.838;2023-02-18T03:52:07;9.80;79.10
32293;DHT22;43233;48.608;8.838;2023-02-18T03:54:33;9.80;79.80
32293;DHT22;43233;48.608;8.838;2023-02-18T03:56:58;9.80;79.10
32293;DHT22;43233;48.608;8.838;2023-02-18T03:59:24;9.80;78.90
32293;DHT22;43233;48.608;8.838;2023-02-18T04:01:49;9.80;78.80
32293;DHT22;43233;48.608;8.838;2023-02-18T04:04:15;9.90;78.20
32293;DHT22;43233;48.608;8.838;2023-02-18T04:06:41;9.90;78.10
32293;DHT22;43233;48.608;8.838;2023-02-18T04:09:06;9.90;78.10
32293;DHT22;43233;48.608;8.838;2023-02-18T04:11:36;9.90;78.20
32293;DHT22;43233;48.608;8.838;2023-02-18T04:14:02;9.80;78.20
32293;DHT22;43233;48.608;8.838;2023-02-18T04:16:28;9.80;78.40
32293;DHT22;43233;48.608;8.838;2023-02-18T04:18:54;9.70;78.70
32293;DHT22;43233;48.608;8.838;2023-02-18T04:21:19;9.60;78.70
32293;DHT22;43233;48.608;8.838;2023-02-18T04:23:45;9.50;79.30
32293;DHT22;43233;48.608;8.838;2023-02-18T04:26:10;9.40;80.50
32293;DHT22;43233;48.608;8.838;2023-02-18T04:28:36;9.40;80.20
32293;DHT22;43233;48.608;8.838;2023-02-18T04:31:01;9.30;80.80
32293;DHT22;43233;48.608;8.838;2023-02-18T04:33:27;9.30;81.30
32293;DHT22;43233;48.608;8.838;2023-02-18T04:35:53;9.20;81.30
32293;DHT22;43233;48.608;8.838;2023-02-18T04:38:18;9.20;81.90
32293;DHT22;43233;48.608;8.838;2023-02-18T04:40:44;9.10;82.20
32293;DHT22;43233;48.608;8.838;2023-02-18T04:43:10;9.00;82.20
32293;DHT22;43233;48.608;8.838;2023-02-18T04:45:35;9.00;82.60
32293;DHT22;43233;48.608;8.838;2023-02-18T04:48:01;8.90;82.80
32293;DHT22;43233;48.608;8.838;2023-02-18T04:50:27;8.90;83.00
32293;DHT22;43233;48.608;8.838;2023-02-18T04:52:52;8.90;82.70
32293;DHT22;43233;48.608;8.838;2023-02-18T04:55:18;8.80;82.20
32293;DHT22;43233;48.608;8.838;2023-02-18T04:57:43;8.70;81.30
32293;DHT22;43233;48.608;8.838;2023-02-18T05:00:14;8.70;81.50
32293;DHT22;43233;48.608;8.838;2023-02-18T05:02:40;8.70;81.30
32293;DHT22;43233;48.608;8.838;2023-02-18T05:05:06;8.60;80.70
32293;DHT22;43233;48.608;8.838;2023-02-18T05:07:32;8.60;81.00
32293;DHT22;43233;48.608;8.838;2023-02-18T05:09:57;8.60;82.20
32293;DHT22;43233;48.608;8.838;2023-02-18T05:12:23;8.60;83.10
32293;DHT22;43233;48.608;8.838;2023-02-18T05:14:48;8.60;83.70
32293;DHT22;43233;48.608;8.838;2023-02-18T05:17:14;8.70;84.80
32293;DHT22;43233;48.608;8.838;2023-02-18T05:19:40;8.70;85.20
32293;DHT22;43233;48.608;8.838;2023-02-18T05:22:05;8.70;86.10
32293;DHT22;43233;48.608;8.838;2023-02-18T05:24:31;8.80;86.00
32293;DHT22;43233;48.608;8.838;2023-02-18T05:26:57;8.90;86.00
32293;DHT22;43233;48.608;8.838;2023-02-18T05:29:22;8.90;86.00
32293;DHT22;43233;48.608;8.838;2023-02-18T05:31:48;9.00;85.80
32293;DHT22;43233;48.608;8.838;2023-02-18T05:34:13;9.10;85.50
32293;DHT22;43233;48.608;8.838;2023-02-18T05:36:39;9.10;85.50
32293;DHT22;43233;48.608;8.838;2023-02-18T05:39:04;9.10;85.60
32293;DHT22;43233;48.608;8.838;2023-02-18T05:41:30;9.20;85.80
32293;DHT22;43233;48.608;8.838;2023-02-18T05:43:56;9.20;85.30
32293;DHT22;43233;48.608;8.838;2023-02-18T05:46:40;9.20;85.30
32293;DHT22;43233;48.608;8.838;2023-02-18T05:49:05;9.30;85.10
32293;DHT22;43233;48.608;8.838;2023-02-18T05:51:31;9.20;85.20
32293;DHT22;43233;48.608;8.838;2023-02-18T05:53:57;9.20;85.20
32293;DHT22;43233;48.608;8.838;2023-02-18T05:56:22;9.20;85.30
32293;DHT22;43233;48.608;8.838;2023-02-18T05:58:48;9.20;85.00
32293;DHT22;43233;48.608;8.838;2023-02-18T06:01:13;9.20;86.10
32293;DHT22;43233;48.608;8.838;2023-02-18T06:03:39;9.30;85.30
32293;DHT22;43233;48.608;8.838;2023-02-18T06:06:05;9.30;85.20
32293;DHT22;43233;48.608;8.838;2023-02-18T06:08:31;9.30;85.10
32293;DHT22;43233;48.608;8.838;2023-02-18T06:10:56;9.30;85.30
32293;DHT22;43233;48.608;8.838;2023-02-18T06:13:22;9.30;85.10
32293;DHT22;43233;48.608;8.838;2023-02-18T06:15:51;9.30;85.00
32293;DHT22;43233;48.608;8.838;2023-02-18T06:18:17;9.30;85.40
32293;DHT22;43233;48.608;8.838;2023-02-18T06:20:45;9.30;85.10
32293;DHT22;43233;48.608;8.838;2023-02-18T06:23:10;9.30;85.30
32293;DHT22;43233;48.608;8.838;2023-02-18T06:25:36;9.30;85.50
32293;DHT22;43233;48.608;8.838;2023-02-18T06:28:02;9.30;85.70
32293;DHT22;43233;48.608;8.838;2023-02-18T06:30:27;9.20;85.80
32293;DHT22;43233;48.608;8.838;2023-02-18T06:32:53;9.30;85.90
32293;DHT22;43233;48.608;8.838;2023-02-18T06:35:18;9.30;85.40
32293;DHT22;43233;48.608;8.838;2023-02-18T06:37:44;9.30;85.50
32293;DHT22;43233;48.608;8.838;2023-02-18T06:40:10;9.30;85.70
32293;DHT22;43233;48.608;8.838;2023-02-18T06:42:36;9.20;85.70
32293;DHT22;43233;48.608;8.838;2023-02-18T06:45:02;9.30;86.20
32293;DHT22;43233;48.608;8.838;2023-02-18T06:47:28;9.30;85.80
32293;DHT22;43233;48.608;8.838;2023-02-18T06:49:54;9.30;85.90
32293;DHT22;43233;48.608;8.838;2023-02-18T06:52:19;9.30;86.10
32293;DHT22;43233;48.608;8.838;2023-02-18T06:54:45;9.30;85.70
32293;DHT22;43233;48.608;8.838;2023-02-18T06:57:10;9.30;85.70
32293;DHT22;43233;48.608;8.838;2023-02-18T06:59:36;9.30;85.40
32293;DHT22;43233;48.608;8.838;2023-02-18T07:02:01;9.30;85.30
32293;DHT22;43233;48.608;8.838;2023-02-18T07:04:27;9.30;84.80
32293;DHT22;43233;48.608;8.838;2023-02-18T07:06:53;9.40;83.90
32293;DHT22;43233;48.608;8.838;2023-02-18T07:09:18;9.50;83.60
32293;DHT22;43233;48.608;8.838;2023-02-18T07:11:44;9.60;83.50
32293;DHT22;43233;48.608;8.838;2023-02-18T07:14:09;9.70;82.30
32293;DHT22;43233;48.608;8.838;2023-02-18T07:16:35;9.80;81.40
32293;DHT22;43233;48.608;8.838;2023-02-18T07:19:01;9.90;80.90
32293;DHT22;43233;48.608;8.838;2023-02-18T07:21:26;9.90;80.30
32293;DHT22;43233;48.608;8.838;2023-02-18T07:23:52;10.00;80.30
32293;DHT22;43233;48.608;8.838;2023-02-18T07:26:17;10.00;80.40
32293;DHT22;43233;48.608;8.838;2023-02-18T07:28:43;10.10;80.10
32293;DHT22;43233;48.608;8.838;2023-02-18T07:31:09;10.10;79.40
32293;DHT22;43233;48.608;8.838;2023-02-18T07:33:35;10.10;78.70
32293;DHT22;43233;48.608;8.838;2023-02-18T07:36:01;10.10;78.90
32293;DHT22;43233;48.608;8.838;2023-02-18T07:38:27;10.20;78.90
32293;DHT22;43233;48.608;8.838;2023-02-18T07:40:54;10.20;78.70
32293;DHT22;43233;48.608;8.838;2023-02-18T07:43:20;10.20;78.30
32293;DHT22;43233;48.608;8.838;2023-02-18T07:45:46;10.30;78.50
32293;DHT22;43233;48.608;8.838;2023-02-18T07:48:12;10.30;78.10
32293;DHT22;43233;48.608;8.838;2023-02-18T07:50:39;10.30;78.40
32293;DHT22;43233;48.608;8.838;2023-02-18T07:53:06;10.40;77.90
32293;DHT22;43233;48.608;8.838;2023-02-18T07:55:32;10.40;77.70
32293;DHT22;43233;48.608;8.838;2023-02-18T08:00:46;10.40;77.90
32293;DHT22;43233;48.608;8.838;2023-02-18T08:03:16;10.40;77.50
32293;DHT22;43233;48.608;8.838;2023-02-18T08:05:42;10.40;77.90
32293;DHT22;43233;48.608;8.838;2023-02-18T08:08:16;10.40;77.80
32293;DHT22;43233;48.608;8.838;2023-02-18T08:10:42;10.40;78.50
32293;DHT22;43233;48.608;8.838;2023-02-18T08:13:08;10.40;77.40
32293;DHT22;43233;48.608;8.838;2023-02-18T08:15:34;10.40;78.00
32293;DHT22;43233;48.608;8.838;2023-02-18T08:18:00;10.40;77.70
32293;DHT22;43233;48.608;8.838;2023-02-18T08:20:26;10.40;77.20
32293;DHT22;43233;48.608;8.838;2023-02-18T08:22:52;10.50;77.20
32293;DHT22;43233;48.608;8.838;2023-02-18T08:25:18;10.40;77.10
32293;DHT22;43233;48.608;8.838;2023-02-18T08:27:43;10.50;77.40
32293;DHT22;43233;48.608;8.838;2023-02-18T08:30:09;10.50;77.10
32293;DHT22;43233;48.608;8.838;2023-02-18T08:32:35;10.50;77.10
32293;DHT22;43233;48.608;8.838;2023-02-18T08:35:02;10.50;76.80
32293;DHT22;43233;48.608;8.838;2023-02-18T08:37:28;10.50;76.70
32293;DHT22;43233;48.608;8.838;2023-02-18T08:39:54;10.50;76.90
32293;DHT22;43233;48.608;8.838;2023-02-18T08:42:19;10.60;76.70
32293;DHT22;43233;48.608;8.838;2023-02-18T08:44:45;10.60;76.10
32293;DHT22;43233;48.608;8.838;2023-02-18T08:47:11;10.60;75.90
32293;DHT22;43233;48.608;8.838;2023-02-18T08:49:36;10.60;75.70
32293;DHT22;43233;48.608;8.838;2023-02-18T08:52:03;10.60;76.10
32293;DHT22;43233;48.608;8.838;2023-02-18T08:54:29;10.70;76.30
32293;DHT22;43233;48.608;8.838;2023-02-18T08:56:55;10.70;76.50
32293;DHT22;43233;48.608;8.838;2023-02-18T08:59:24;10.70;76.50
32293;DHT22;43233;48.608;8.838;2023-02-18T09:01:50;10.70;75.90
32293;DHT22;43233;48.608;8.838;2023-02-18T09:04:16;10.70;76.30
32293;DHT22;43233;48.608;8.838;2023-02-18T09:06:42;10.70;76.30
32293;DHT22;43233;48.608;8.838;2023-02-18T09:09:08;10.70;76.30
32293;DHT22;43233;48.608;8.838;2023-02-18T09:11:35;10.70;76.60
32293;DHT22;43233;48.608;8.838;2023-02-18T09:14:01;10.70;77.20
32293;DHT22;43233;48.608;8.838;2023-02-18T09:16:27;10.80;77.10
32293;DHT22;43233;48.608;8.838;2023-02-18T09:18:54;10.80;77.80
32293;DHT22;43233;48.608;8.838;2023-02-18T09:21:21;10.80;77.40
32293;DHT22;43233;48.608;8.838;2023-02-18T09:23:48;10.80;76.20
32293;DHT22;43233;48.608;8.838;2023-02-18T09:26:15;10.90;75.80
32293;DHT22;43233;48.608;8.838;2023-02-18T09:28:41;10.90;75.20
32293;DHT22;43233;48.608;8.838;2023-02-18T09:31:12;11.00;75.20
32293;DHT22;43233;48.608;8.838;2023-02-18T09:33:40;11.00;75.20
32293;DHT22;43233;48.608;8.838;2023-02-18T09:36:06;11.00;75.20
32293;DHT22;43233;48.608;8.838;2023-02-18T09:38:32;11.00;74.90
32293;DHT22;43233;48.608;8.838;2023-02-18T09:41:00;11.00;76.20
32293;DHT22;43233;48.608;8.838;2023-02-18T09:43:33;11.10;75.80
32293;DHT22;43233;48.608;8.838;2023-02-18T09:46:01;11.10;74.70
32293;DHT22;43233;48.608;8.838;2023-02-18T09:48:32;11.10;74.50
32293;DHT22;43233;48.608;8.838;2023-02-18T09:50:59;11.10;75.10
32293;DHT22;43233;48.608;8.838;2023-02-18T09:53:25;11.10;74.20
32293;DHT22;43233;48.608;8.838;2023-02-18T09:55:56;11.10;74.30
32293;DHT22;43233;48.608;8.838;2023-02-18T09:58:24;11.10;74.40
32293;DHT22;43233;48.608;8.838;2023-02-18T10:03:24;11.30;73.40
32293;DHT22;43233;48.608;8.838;2023-02-18T10:06:01;11.30;73.10
32293;DHT22;43233;48.608;8.838;2023-02-18T10:08:39;11.30;73.30
32293;DHT22;43233;48.608;8.838;2023-02-18T10:11:12;11.20;73.20
32293;DHT22;43233;48.608;8.838;2023-02-18T10:13:41;11.10;73.90
32293;DHT22;43233;48.608;8.838;2023-02-18T10:16:08;11.10;73.70
32293;DHT22;43233;48.608;8.838;2023-02-18T10:18:42;11.10;73.70
32293;DHT22;43233;48.608;8.838;2023-02-18T10:21:14;11.10;75.20
32293;DHT22;43233;48.608;8.838;2023-02-18T10:24:05;11.10;74.40
32293;DHT22;43233;48.608;8.838;2023-02-18T10:26:34;11.10;73.80
32293;DHT22;43233;48.608;8.838;2023-02-18T10:29:01;11.10;73.00
32293;DHT22;43233;48.608;8.838;2023-02-18T10:31:34;11.10;72.50
32293;DHT22;43233;48.608;8.838;2023-02-18T10:36:44;11.10;72.30
32293;DHT22;43233;48.608;8.838;2023-02-18T10:41:59;11.10;73.10
32293;DHT22;43233;48.608;8.838;2023-02-18T10:44:58;11.10;73.00
32293;DHT22;43233;48.608;8.838;2023-02-18T10:50:27;11.20;71.60
32293;DHT22;43233;48.608;8.838;2023-02-18T10:52:56;11.20;71.30
32293;DHT22;43233;48.608;8.838;2023-02-18T10:55:40;11.20;70.30
32293;DHT22;43233;48.608;8.838;2023-02-18T10:58:32;11.20;70.50
32293;DHT22;43233;48.608;8.838;2023-02-18T11:01:00;11.20;71.40
32293;DHT22;43233;48.608;8.838;2023-02-18T11:03:50;11.20;70.50
32293;DHT22;43233;48.608;8.838;2023-02-18T11:08:52;11.20;70.40
32293;DHT22;43233;48.608;8.838;2023-02-18T11:11:27;11.20;70.70
32293;DHT22;43233;48.608;8.838;2023-02-18T11:13:56;11.30;70.20
32293;DHT22;43233;48.608;8.838;2023-02-18T11:16:24;11.40;69.10
32293;DHT22;43233;48.608;8.838;2023-02-18T11:19:00;11.40;68.70
32293;DHT22;43233;48.608;8.838;2023-02-18T11:21:35;11.50;68.10
32293;DHT22;43233;48.608;8.838;2023-02-18T11:24:14;11.50;68.20
32293;DHT22;43233;48.608;8.838;2023-02-18T11:26:41;11.50;68.20
32293;DHT22;43233;48.608;8.838;2023-02-18T11:29:22;11.50;67.00
32293;DHT22;43233;48.608;8.838;2023-02-18T11:31:50;11.50;67.20
32293;DHT22;43233;48.608;8.838;2023-02-18T11:34:20;11.60;67.40
32293;DHT22;43233;48.608;8.838;2023-02-18T11:36:47;11.60;67.40
32293;DHT22;43233;48.608;8.838;2023-02-18T11:41:52;11.70;67.50
32293;DHT22;43233;48.608;8.838;2023-02-18T11:44:36;11.60;65.50
32293;DHT22;43233;48.608;8.838;2023-02-18T11:47:04;11.60;66.30
32293;DHT22;43233;48.608;8.838;2023-02-18T11:49:32;11.70;67.80
32293;DHT22;43233;48.608;8.838;2023-02-18T11:54:39;11.80;65.50
32293;DHT22;43233;48.608;8.838;2023-02-18T11:57:21;11.90;66.00
32293;DHT22;43233;48.608;8.838;2023-02-18T11:59:51;11.90;64.50
32293;DHT22;43233;48.608;8.838;2023-02-18T12:02:46;12.00;64.00
32293;DHT22;43233;48.608;8.838;2023-02-18T12:05:17;11.90;63.30
32293;DHT22;43233;48.608;8.838;2023-02-18T12:07:58;12.00;63.40
32293;DHT22;43233;48.608;8.838;2023-02-18T12:10:30;12.10;63.50
32293;DHT22;43233;48.608;8.838;2023-02-18T12:13:05;12.20;63.10
32293;DHT22;43233;48.608;8.838;2023-02-18T12:15:53;12.10;62.20
32293;DHT22;43233;48.608;8.838;2023-02-18T12:21:17;12.10;62.80
32293;DHT22;43233;48.608;8.838;2023-02-18T12:26:26;12.30;62.10
32293;DHT22;43233;48.608;8.838;2023-02-18T12:32:38;12.30;61.80
32293;DHT22;43233;48.608;8.838;2023-02-18T12:54:34;12.20;60.80
32293;DHT22;43233;48.608;8.838;2023-02-18T12:57:12;12.20;60.50
32293;DHT22;43233;48.608;8.838;2023-02-18T13:02:46;12.20;61.10
32293;DHT22;43233;48.608;8.838;2023-02-18T13:11:12;12.20;60.90
32293;DHT22;43233;48.608;8.838;2023-02-18T13:13:49;12.20;60.80
32293;DHT22;43233;48.608;8.838;2023-02-18T13:16:18;12.20;61.40
32293;DHT22;43233;48.608;8.838;2023-02-18T13:21:15;12.20;60.00
32293;DHT22;43233;48.608;8.838;2023-02-18T13:24:02;12.20;61.10
32293;DHT22;43233;48.608;8.838;2023-02-18T13:26:32;12.10;61.70
32293;DHT22;43233;48.608;8.838;2023-02-18T13:34:12;12.20;62.20
32293;DHT22;43233;48.608;8.838;2023-02-18T13:36:55;12.20;61.70
32293;DHT22;43233;48.608;8.838;2023-02-18T13:39:24;12.20;60.90
32293;DHT22;43233;48.608;8.838;2023-02-18T13:41:51;12.20;60.70
32293;DHT22;43233;48.608;8.838;2023-02-18T13:47:41;12.10;61.10
32293;DHT22;43233;48.608;8.838;2023-02-18T13:50:29;12.20;61.00
32293;DHT22;43233;48.608;8.838;2023-02-18T13:58:54;12.20;61.30
32293;DHT22;43233;48.608;8.838;2023-02-18T14:01:36;12.20;60.20
32293;DHT22;43233;48.608;8.838;2023-02-18T14:04:02;12.30;60.60
32293;DHT22;43233;48.608;8.838;2023-02-18T14:11:46;12.20;61.40
32293;DHT22;43233;48.608;8.838;2023-02-18T14:19:53;12.20;61.60
32293;DHT22;43233;48.608;8.838;2023-02-18T14:22:30;12.30;61.00
32293;DHT22;43233;48.608;8.838;2023-02-18T14:27:46;12.30;60.20
32293;DHT22;43233;48.608;8.838;2023-02-18T14:32:50;13.00;58.50
32293;DHT22;43233;48.608;8.838;2023-02-18T14:35:40;13.00;57.80
32293;DHT22;43233;48.608;8.838;2023-02-18T14:44:12;12.70;58.00
32293;DHT22;43233;48.608;8.838;2023-02-18T14:47:16;12.60;59.10
32293;DHT22;43233;48.608;8.838;2023-02-18T14:49:46;12.60;58.80
32293;DHT22;43233;48.608;8.838;2023-02-18T14:52:32;12.60;58.90
32293;DHT22;43233;48.608;8.838;2023-02-18T14:55:00;13.00;59.30
32293;DHT22;43233;48.608;8.838;2023-02-18T14:57:49;13.40;57.30
32293;DHT22;43233;48.608;8.838;2023-02-18T15:00:21;13.40;56.90
32293;DHT22;43233;48.608;8.838;2023-02-18T15:02:48;13.30;58.10
32293;DHT22;43233;48.608;8.838;2023-02-18T15:05:19;13.30;58.30
32293;DHT22;43233;48.608;8.838;2023-02-18T15:10:35;12.90;59.60
32293;DHT22;43233;48.608;8.838;2023-02-18T15:13:02;12.90;60.10
32293;DHT22;43233;48.608;8.838;2023-02-18T15:15:29;12.80;60.90
32293;DHT22;43233;48.608;8.838;2023-02-18T15:17:56;12.70;59.70
32293;DHT22;43233;48.608;8.838;2023-02-18T15:20:22;12.60;59.80
32293;DHT22;43233;48.608;8.838;2023-02-18T15:22:48;12.60;60.80
32293;DHT22;43233;48.608;8.838;2023-02-18T15:25:15;12.60;60.90
32293;DHT22;43233;48.608;8.838;2023-02-18T15:27:42;12.60;60.20
32293;DHT22;43233;48.608;8.838;2023-02-18T15:30:30;12.50;60.50
32293;DHT22;43233;48.608;8.838;2023-02-18T15:32:58;12.40;60.80
32293;DHT22;43233;48.608;8.838;2023-02-18T15:35:29;12.40;61.80
32293;DHT22;43233;48.608;8.838;2023-02-18T15:37:57;12.30;61.00
32293;DHT22;43233;48.608;8.838;2023-02-18T15:40:30;12.30;61.50
32293;DHT22;43233;48.608;8.838;2023-02-18T15:42:58;12.20;61.30
32293;DHT22;43233;48.608;8.838;2023-02-18T15:45:28;12.20;62.60
32293;DHT22;43233;48.608;8.838;2023-02-18T15:47:56;12.10;61.70
32293;DHT22;43233;48.608;8.838;2023-02-18T15:50:29;12.10;62.70
32293;DHT22;43233;48.608;8.838;2023-02-18T15:52:58;12.00;61.90
32293;DHT22;43233;48.608;8.838;2023-02-18T15:55:36;12.00;61.90
32293;DHT22;43233;48.608;8.838;2023-02-18T16:00:46;11.90;62.70
32293;DHT22;43233;48.608;8.838;2023-02-18T16:03:43;11.90;63.50
32293;DHT22;43233;48.608;8.838;2023-02-18T16:09:12;11.80;63.80
32293;DHT22;43233;48.608;8.838;2023-02-18T16:11:41;11.70;64.50
32293;DHT22;43233;48.608;8.838;2023-02-18T16:14:30;11.70;64.80
32293;DHT22;43233;48.608;8.838;2023-02-18T16:30:28;11.50;64.80
32293;DHT22;43233;48.608;8.838;2023-02-18T16:32:55;11.40;65.70
32293;DHT22;43233;48.608;8.838;2023-02-18T16:35:23;11.40;65.90
32293;DHT22;43233;48.608;8.838;2023-02-18T16:37:50;11.40;65.80
32293;DHT22;43233;48.608;8.838;2023-02-18T16:40:34;11.40;66.00
32293;DHT22;43233;48.608;8.838;2023-02-18T16:43:15;11.30;66.00
32293;DHT22;43233;48.608;8.838;2023-02-18T16:45:46;11.30;67.10
32293;DHT22;43233;48.608;8.838;2023-02-18T16:48:34;11.30;67.10
32293;DHT22;43233;48.608;8.838;2023-02-18T16:51:03;11.30;66.40
32293;DHT22;43233;48.608;8.838;2023-02-18T16:53:30;11.30;66.50
32293;DHT22;43233;48.608;8.838;2023-02-18T16:55:55;11.20;67.10
32293;DHT22;43233;48.608;8.838;2023-02-18T16:58:21;11.20;67.00
32293;DHT22;43233;48.608;8.838;2023-02-18T17:00:48;11.20;67.50
32293;DHT22;43233;48.608;8.838;2023-02-18T17:03:15;11.20;67.20
32293;DHT22;43233;48.608;8.838;2023-02-18T17:05:41;11.20;67.40
32293;DHT22;43233;48.608;8.838;2023-02-18T17:08:17;11.20;66.80
32293;DHT22;43233;48.608;8.838;2023-02-18T17:11:02;11.20;67.20
32293;DHT22;43233;48.608;8.838;2023-02-18T17:13:29;11.20;67.10
32293;DHT22;43233;48.608;8.838;2023-02-18T17:15:56;11.20;67.10
32293;DHT22;43233;48.608;8.838;2023-02-18T17:18:23;11.20;66.80
32293;DHT22;43233;48.608;8.838;2023-02-18T17:20:50;11.20;66.70
32293;DHT22;43233;48.608;8.838;2023-02-18T17:23:18;11.20;67.70
32293;DHT22;43233;48.608;8.838;2023-02-18T17:25:46;11.20;67.60
32293;DHT22;43233;48.608;8.838;2023-02-18T17:28:13;11.20;67.60
32293;DHT22;43233;48.608;8.838;2023-02-18T17:30:45;11.20;68.20
32293;DHT22;43233;48.608;8.838;2023-02-18T17:33:14;11.10;68.20
32293;DHT22;43233;48.608;8.838;2023-02-18T17:35:40;11.20;68.10
32293;DHT22;43233;48.608;8.838;2023-02-18T17:38:13;11.10;68.80
32293;DHT22;43233;48.608;8.838;2023-02-18T17:40:39;11.10;69.10
32293;DHT22;43233;48.608;8.838;2023-02-18T17:43:05;11.00;69.40
32293;DHT22;43233;48.608;8.838;2023-02-18T17:45:34;11.00;69.20
32293;DHT22;43233;48.608;8.838;2023-02-18T17:48:00;11.00;69.80
32293;DHT22;43233;48.608;8.838;2023-02-18T17:50:27;11.00;70.00
32293;DHT22;43233;48.608;8.838;2023-02-18T17:52:53;11.00;70.40
32293;DHT22;43233;48.608;8.838;2023-02-18T17:55:20;10.90;70.70
32293;DHT22;43233;48.608;8.838;2023-02-18T17:57:46;11.00;70.10
32293;DHT22;43233;48.608;8.838;2023-02-18T18:00:15;10.90;70.70
32293;DHT22;43233;48.608;8.838;2023-02-18T18:02:41;10.90;70.40
32293;DHT22;43233;48.608;8.838;2023-02-18T18:05:19;11.00;70.70
32293;DHT22;43233;48.608;8.838;2023-02-18T18:07:45;11.00;71.10
32293;DHT22;43233;48.608;8.838;2023-02-18T18:10:11;11.00;71.20
32293;DHT22;43233;48.608;8.838;2023-02-18T18:12:37;10.90;71.70
32293;DHT22;43233;48.608;8.838;2023-02-18T18:15:22;10.90;71.80
32293;DHT22;43233;48.608;8.838;2023-02-18T18:17:48;10.90;72.10
32293;DHT22;43233;48.608;8.838;2023-02-18T18:20:14;10.90;72.20
32293;DHT22;43233;48.608;8.838;2023-02-18T18:22:40;10.90;72.30
32293;DHT22;43233;48.608;8.838;2023-02-18T18:27:54;10.90;72.30
32293;DHT22;43233;48.608;8.838;2023-02-18T18:30:24;10.90;72.50
32293;DHT22;43233;48.608;8.838;2023-02-18T18:32:51;10.90;72.40
32293;DHT22;43233;48.608;8.838;2023-02-18T18:35:19;10.90;72.50
32293;DHT22;43233;48.608;8.838;2023-02-18T18:37:45;10.90;72.90
32293;DHT22;43233;48.608;8.838;2023-02-18T18:40:11;10.90;72.80
32293;DHT22;43233;48.608;8.838;2023-02-18T18:42:36;10.80;73.00
32293;DHT22;43233;48.608;8.838;2023-02-18T18:45:02;10.80;72.80